Time;durP1;ratioP1;P1;durP2;ratioP2;P2;SDS_P1;SDS_P2;PMS_P1;PMS_P2;Temp;Humidity;BMP_temperature;BMP_pressure;BME280_temperature;BME280_humidity;BME280_pressure;Samples;Min_cycle;Max_cycle;Signal;HPM_P1;HPM_P2
2022/04/15 00:02:09;;;;;;;16.30;10.77;;;12.60;99.90;;;;;;4973250;28;19926;-65
2022/04/15 00:04:36;;;;;;;18.77;11.30;;;12.60;99.90;;;;;;4973869;28;20031;-64
2022/04/15 00:07:04;;;;;;;22.88;12.07;;;12.60;99.90;;;;;;4971703;28;20046;-64
2022/04/15 00:09:30;;;;;;;25.25;13.88;;;12.60;99.90;;;;;;4973024;28;20471;-64
2022/04/15 00:12:00;;;;;;;19.45;13.15;;;12.60;99.90;;;;;;4974358;28;20073;-64
2022/04/15 00:14:27;;;;;;;16.85;10.68;;;12.60;99.90;;;;;;4972144;28;20093;-65
2022/04/15 00:16:54;;;;;;;29.40;14.93;;;12.60;99.90;;;;;;4972123;28;20042;-65
2022/04/15 00:19:20;;;;;;;;;;;12.60;99.90;;;;;;4974403;28;20712;-65
2022/04/15 00:21:47;;;;;;;23.88;16.27;;;12.60;99.90;;;;;;4972272;28;19984;-65
2022/04/15 00:24:14;;;;;;;26.75;18.67;;;12.60;99.90;;;;;;4973767;28;20093;-65
2022/04/15 00:26:41;;;;;;;;;;;12.60;99.90;;;;;;4974024;28;20145;-65
2022/04/15 00:29:08;;;;;;;23.20;15.88;;;12.60;99.90;;;;;;4973967;28;19980;-65
2022/04/15 00:31:35;;;;;;;31.65;17.90;;;12.60;99.90;;;;;;4973667;28;20149;-65
2022/04/15 00:34:03;;;;;;;24.25;14.75;;;12.70;99.90;;;;;;4973293;28;20622;-66
2022/04/15 00:36:30;;;;;;;18.45;13.70;;;12.70;99.90;;;;;;4974120;28;20057;-65
2022/04/15 00:38:57;;;;;;;20.30;12.02;;;12.70;99.90;;;;;;4972149;28;20039;-66
2022/04/15 00:41:23;;;;;;;;;;;12.70;99.90;;;;;;4974076;28;20050;-66
2022/04/15 00:43:54;;;;;;;18.55;11.70;;;12.80;99.90;;;;;;4975496;28;20588;-65
2022/04/15 00:46:21;;;;;;;19.83;13.00;;;12.80;99.90;;;;;;4977137;28;20042;-65
2022/04/15 00:48:48;;;;;;;25.88;15.60;;;12.80;99.90;;;;;;4974272;28;20849;-65
2022/04/15 00:51:15;;;;;;;;;;;12.80;99.90;;;;;;4978042;28;20952;-65
2022/04/15 00:53:44;;;;;;;18.42;13.73;;;12.80;99.90;;;;;;4977162;28;19972;-65
2022/04/15 00:56:12;;;;;;;28.75;18.13;;;12.80;99.90;;;;;;4977304;28;20589;-65
2022/04/15 00:58:40;;;;;;;23.02;13.30;;;12.80;99.90;;;;;;4976303;28;20480;-65
2022/04/15 01:01:08;;;;;;;28.10;17.40;;;12.90;99.90;;;;;;4977018;28;20038;-65
2022/04/15 01:03:36;;;;;;;21.63;14.90;;;12.90;99.90;;;;;;4978117;28;20053;-65
2022/04/15 01:06:06;;;;;;;22.55;14.73;;;12.90;99.90;;;;;;4977524;28;20456;-65
2022/04/15 01:08:37;;;;;;;19.67;14.55;;;12.90;99.90;;;;;;4976574;28;20093;-65
2022/04/15 01:11:04;;;;;;;21.45;15.65;;;12.90;99.90;;;;;;4977298;28;20887;-65
2022/04/15 01:13:35;;;;;;;23.10;14.63;;;12.90;99.90;;;;;;4976349;28;20050;-65
2022/04/15 01:16:03;;;;;;;21.42;16.58;;;12.90;99.90;;;;;;4974057;28;20693;-65
2022/04/15 01:18:29;;;;;;;26.98;17.83;;;12.90;99.90;;;;;;4976017;28;20501;-65
2022/04/15 01:20:57;;;;;;;35.75;22.98;;;13.00;99.90;;;;;;4977395;28;20061;-65
2022/04/15 01:23:23;;;;;;;32.75;21.35;;;13.00;99.90;;;;;;4976467;28;20035;-65
2022/04/15 01:25:50;;;;;;;;;;;13.00;99.90;;;;;;4977361;28;20050;-65
2022/04/15 01:28:19;;;;;;;23.63;17.27;;;12.90;99.90;;;;;;4976350;28;19929;-66
2022/04/15 01:30:46;;;;;;;21.35;16.65;;;13.00;99.90;;;;;;4975365;28;20054;-65
2022/04/15 01:33:13;;;;;;;28.33;18.15;;;13.00;99.90;;;;;;4976808;28;20053;-65
2022/04/15 01:35:45;;;;;;;24.75;17.38;;;13.00;99.90;;;;;;4976506;28;20482;-65
2022/04/15 01:38:14;;;;;;;18.95;14.23;;;13.00;99.90;;;;;;4975940;28;20042;-65
2022/04/15 01:40:43;;;;;;;21.92;14.60;;;13.00;99.90;;;;;;4976655;28;20057;-64
2022/04/15 01:43:10;;;;;;;27.20;16.75;;;13.00;99.90;;;;;;4975961;28;20046;-65
2022/04/15 01:45:37;;;;;;;23.63;16.25;;;13.00;99.90;;;;;;4976053;28;20050;-65
2022/04/15 01:48:05;;;;;;;22.38;15.77;;;13.10;99.90;;;;;;4974595;28;20048;-65
2022/04/15 01:50:32;;;;;;;24.45;17.20;;;13.00;99.90;;;;;;4990693;28;20112;-65
2022/04/15 01:52:58;;;;;;;;;;;13.00;99.90;;;;;;4975926;28;20047;-65
2022/04/15 01:55:26;;;;;;;35.75;17.63;;;13.10;99.90;;;;;;4976575;28;19925;-65
2022/04/15 01:57:54;;;;;;;36.28;23.13;;;13.00;99.90;;;;;;4975946;28;20136;-65
2022/04/15 02:00:21;;;;;;;25.42;16.75;;;13.00;99.90;;;;;;4973616;28;20054;-65
2022/04/15 02:02:48;;;;;;;28.98;19.45;;;13.00;99.90;;;;;;4975938;28;20046;-65
2022/04/15 02:05:14;;;;;;;27.20;18.85;;;12.90;99.90;;;;;;4975916;28;20132;-65
2022/04/15 02:07:42;;;;;;;23.05;17.90;;;12.90;99.90;;;;;;4974835;28;20046;-65
2022/04/15 02:10:09;;;;;;;18.95;16.50;;;12.90;99.90;;;;;;4975795;28;20611;-65
2022/04/15 02:12:36;;;;;;;32.00;20.02;;;12.90;99.90;;;;;;4976317;28;20042;-65
2022/04/15 02:15:04;;;;;;;32.05;18.05;;;12.90;99.90;;;;;;4974076;28;20050;-65
2022/04/15 02:17:31;;;;;;;22.83;16.48;;;12.90;99.90;;;;;;4970923;28;20046;-65
2022/04/15 02:19:58;;;;;;;;;;;12.80;99.90;;;;;;4975023;28;20042;-65
2022/04/15 02:22:25;;;;;;;22.83;18.40;;;12.80;99.90;;;;;;4975158;28;19992;-65
2022/04/15 02:24:51;;;;;;;;;;;12.80;99.90;;;;;;4976031;28;20042;-65
2022/04/15 02:27:18;;;;;;;26.45;20.02;;;12.80;99.90;;;;;;4974912;28;19926;-65
2022/04/15 02:29:45;;;;;;;33.97;20.08;;;12.80;99.90;;;;;;4975870;28;20120;-65
2022/04/15 02:32:12;;;;;;;;;;;12.90;99.90;;;;;;4990820;28;20070;-65
2022/04/15 02:34:39;;;;;;;29.73;21.15;;;12.90;99.90;;;;;;4975774;28;20527;-65
2022/04/15 02:37:05;;;;;;;;;;;12.90;99.90;;;;;;4976212;28;20050;-65
2022/04/15 02:39:32;;;;;;;21.75;15.30;;;12.90;99.90;;;;;;4974304;28;19964;-64
2022/04/15 02:42:00;;;;;;;21.23;13.98;;;12.80;99.90;;;;;;4975922;28;20661;-64
2022/04/15 02:44:30;;;;;;;20.73;14.73;;;12.80;99.90;;;;;;4975249;28;20121;-64
2022/04/15 02:46:58;;;;;;;18.63;15.18;;;12.80;99.90;;;;;;4974225;28;20053;-64
2022/04/15 02:49:29;;;;;;;27.25;18.63;;;12.70;99.90;;;;;;4974304;28;20137;-64
2022/04/15 02:51:56;;;;;;;18.25;13.38;;;12.70;99.90;;;;;;4975708;28;20050;-64
2022/04/15 02:54:23;;;;;;;;;;;12.60;99.90;;;;;;4974982;28;20042;-64
2022/04/15 02:56:51;;;;;;;29.00;17.98;;;12.60;99.90;;;;;;4974524;28;19925;-65
2022/04/15 02:59:17;;;;;;;29.52;20.42;;;12.60;99.90;;;;;;4975237;28;20046;-64
2022/04/15 03:01:45;;;;;;;26.73;17.15;;;12.50;99.90;;;;;;4974319;28;20132;-64
2022/04/15 03:04:12;;;;;;;20.08;14.48;;;12.50;99.90;;;;;;4974105;28;20041;-64
2022/04/15 03:06:39;;;;;;;18.30;14.43;;;12.40;99.90;;;;;;4973548;28;20042;-64
2022/04/15 03:09:07;;;;;;;17.25;14.88;;;12.40;99.90;;;;;;4973924;28;20097;-65
2022/04/15 03:11:38;;;;;;;24.45;15.57;;;12.40;99.90;;;;;;4975315;28;20053;-65
2022/04/15 03:14:05;;;;;;;21.13;15.23;;;12.40;99.90;;;;;;4975033;28;20148;-65
2022/04/15 03:16:33;;;;;;;27.80;18.45;;;12.40;99.90;;;;;;4973059;28;20049;-65
2022/04/15 03:19:00;;;;;;;27.48;20.00;;;12.40;99.90;;;;;;4973058;28;20112;-65
2022/04/15 03:21:27;;;;;;;;;;;12.50;99.90;;;;;;4973684;28;20678;-65
2022/04/15 03:23:53;;;;;;;20.63;15.98;;;12.40;99.90;;;;;;4974765;28;20604;-65
2022/04/15 03:26:21;;;;;;;24.13;14.93;;;12.40;99.90;;;;;;4974528;28;20128;-64
2022/04/15 03:28:48;;;;;;;22.45;15.18;;;12.40;99.90;;;;;;4974242;28;20046;-64
2022/04/15 03:31:15;;;;;;;15.02;13.05;;;12.50;99.90;;;;;;4973928;28;20077;-64
2022/04/15 03:33:42;;;;;;;;;;;12.50;99.90;;;;;;4975395;28;20053;-64
2022/04/15 03:36:09;;;;;;;28.83;18.42;;;12.50;99.90;;;;;;4974666;28;20027;-64
2022/04/15 03:38:36;;;;;;;18.70;15.13;;;12.50;99.90;;;;;;4972934;28;20046;-64
2022/04/15 03:41:03;;;;;;;23.48;15.57;;;12.50;99.90;;;;;;4973131;28;20042;-64
2022/04/15 03:43:30;;;;;;;20.05;14.45;;;12.50;99.90;;;;;;4973968;28;20074;-64
2022/04/15 03:45:57;;;;;;;21.30;14.25;;;12.50;99.90;;;;;;4974143;28;20042;-64
2022/04/15 03:48:25;;;;;;;16.92;13.13;;;12.50;99.90;;;;;;4973378;28;20279;-65
2022/04/15 03:50:53;;;;;;;22.70;14.90;;;12.50;99.90;;;;;;4972970;28;20061;-64
2022/04/15 03:53:20;;;;;;;22.88;15.32;;;12.50;99.90;;;;;;4956110;28;20805;-65
2022/04/15 03:55:47;;;;;;;18.73;13.30;;;12.50;99.90;;;;;;4973843;28;20044;-64
2022/04/15 03:58:16;;;;;;;21.08;15.63;;;12.60;99.90;;;;;;4973622;28;20050;-64
2022/04/15 04:00:44;;;;;;;20.63;15.90;;;12.60;99.90;;;;;;4972823;28;20128;-63
2022/04/15 04:03:12;;;;;;;20.65;15.35;;;12.60;99.90;;;;;;4974800;28;20069;-64
2022/04/15 04:05:39;;;;;;;28.83;18.50;;;12.60;99.90;;;;;;4971864;28;20042;-64
2022/04/15 04:08:06;;;;;;;;;;;12.50;99.90;;;;;;4973878;28;20074;-64
2022/04/15 04:10:33;;;;;;;21.38;15.77;;;12.50;99.90;;;;;;4974047;28;19932;-64
2022/04/15 04:13:00;;;;;;;27.63;17.20;;;12.50;99.90;;;;;;4974227;28;20042;-65
2022/04/15 04:15:29;;;;;;;21.98;15.82;;;12.50;99.90;;;;;;4973717;28;20042;-65
2022/04/15 04:17:56;;;;;;;18.10;13.13;;;12.50;99.90;;;;;;4971055;28;20802;-65
2022/04/15 04:20:23;;;;;;;22.50;16.52;;;12.50;99.90;;;;;;4988623;28;20092;-64
2022/04/15 04:22:50;;;;;;;;;;;12.40;99.90;;;;;;4974064;28;20324;-64
2022/04/15 04:25:17;;;;;;;20.42;15.13;;;12.40;99.90;;;;;;4989329;28;20592;-64
2022/04/15 04:27:43;;;;;;;;;;;12.40;99.90;;;;;;4989225;28;20051;-64
2022/04/15 04:30:15;;;;;;;26.15;20.25;;;12.40;99.90;;;;;;4973346;28;19957;-64
2022/04/15 04:32:49;;;;;;;29.30;21.42;;;12.30;99.90;;;;;;4974309;28;20058;-65
2022/04/15 04:35:18;;;;;;;29.15;20.58;;;12.30;99.90;;;;;;4974180;28;20054;-65
2022/04/15 04:37:45;;;;;;;24.98;18.17;;;12.30;99.90;;;;;;4971304;28;20049;-65
2022/04/15 04:40:13;;;;;;;26.05;20.40;;;12.30;99.90;;;;;;4973597;28;20045;-65
2022/04/15 04:42:41;;;;;;;23.88;17.80;;;12.30;99.90;;;;;;4973877;28;20077;-65
2022/04/15 04:45:10;;;;;;;24.00;17.50;;;12.30;99.90;;;;;;4971661;28;20501;-65
2022/04/15 04:47:41;;;;;;;28.40;20.45;;;12.30;99.90;;;;;;4972851;28;20047;-65
2022/04/15 04:50:09;;;;;;;25.85;18.65;;;12.30;99.90;;;;;;4972286;28;20105;-64
2022/04/15 04:52:37;;;;;;;22.42;16.33;;;12.40;99.90;;;;;;4972530;28;20046;-65
2022/04/15 04:55:05;;;;;;;21.70;16.13;;;12.40;99.90;;;;;;4972894;28;20528;-65
2022/04/15 04:57:32;;;;;;;20.20;17.35;;;12.40;99.90;;;;;;4972918;28;20071;-64
2022/04/15 04:59:59;;;;;;;21.20;16.60;;;12.40;99.90;;;;;;4972258;28;20069;-64
2022/04/15 05:02:26;;;;;;;21.42;17.75;;;12.40;99.90;;;;;;4973205;28;20047;-64
2022/04/15 05:04:53;;;;;;;;;;;12.40;99.90;;;;;;4974241;28;20046;-64
2022/04/15 05:07:20;;;;;;;21.33;16.13;;;12.40;99.90;;;;;;4971586;28;20683;-65
2022/04/15 05:09:46;;;;;;;;;;;12.50;99.90;;;;;;4971316;28;20046;-65
2022/04/15 05:12:13;;;;;;;23.55;17.30;;;12.50;99.90;;;;;;4973248;28;19926;-65
2022/04/15 05:14:40;;;;;;;22.10;16.08;;;12.50;99.90;;;;;;4972511;28;20057;-64
2022/04/15 05:17:07;;;;;;;23.90;17.60;;;12.50;99.90;;;;;;4972453;28;20046;-65
2022/04/15 05:19:40;;;;;;;21.40;16.55;;;12.50;99.90;;;;;;4968600;28;20046;-64
2022/04/15 05:22:08;;;;;;;25.52;17.20;;;12.50;99.90;;;;;;4972270;28;20047;-62
2022/04/15 05:24:35;;;;;;;24.45;16.63;;;12.60;99.90;;;;;;4973753;28;20055;-54
2022/04/15 05:27:02;;;;;;;;;;;12.60;99.90;;;;;;4973603;28;20251;-53
2022/04/15 05:29:29;;;;;;;24.35;16.38;;;12.60;99.90;;;;;;4972557;28;20403;-54
2022/04/15 05:31:56;;;;;;;21.95;16.02;;;12.60;99.90;;;;;;4976780;28;20046;-52
2022/04/15 05:34:22;;;;;;;;;;;12.60;99.90;;;;;;4978207;28;20050;-52
2022/04/15 05:36:49;;;;;;;32.47;18.05;;;12.60;99.90;;;;;;4975898;28;20852;-52
2022/04/15 05:39:16;;;;;;;;;;;12.70;99.90;;;;;;4977210;28;20054;-53
2022/04/15 05:41:43;;;;;;;22.90;19.23;;;12.70;99.90;;;;;;4976467;28;20542;-51
2022/04/15 05:44:12;;;;;;;;;;;12.70;99.90;;;;;;4974784;28;20692;-56
2022/04/15 05:46:42;;;;;;;33.95;24.30;;;12.70;99.90;;;;;;4976737;28;19932;-53
2022/04/15 05:49:15;;;;;;;43.45;31.48;;;12.70;99.90;;;;;;4975630;28;20054;-53
2022/04/15 05:51:43;;;;;;;57.53;35.67;;;12.70;99.90;;;;;;4974862;28;20562;-55
2022/04/15 05:54:10;;;;;;;50.65;34.85;;;12.80;99.90;;;;;;4976377;28;20050;-52
2022/04/15 05:56:37;;;;;;;46.40;33.50;;;12.70;99.90;;;;;;4976489;28;20042;-53
2022/04/15 05:59:04;;;;;;;42.60;31.92;;;12.70;99.90;;;;;;4975721;28;20528;-53
2022/04/15 06:01:31;;;;;;;41.22;30.23;;;12.70;99.90;;;;;;4976433;28;20709;-55
2022/04/15 06:03:58;;;;;;;;;;;12.80;99.90;;;;;;4977831;28;20034;-55
2022/04/15 06:06:24;;;;;;;46.10;31.45;;;12.70;99.90;;;;;;4975721;28;19932;-52
2022/04/15 06:08:51;;;;;;;;;;;12.80;99.90;;;;;;4975850;28;20112;-52
2022/04/15 06:11:18;;;;;;;44.42;30.90;;;12.80;99.90;;;;;;4976760;28;19925;-52
2022/04/15 06:13:47;;;;;;;42.72;33.22;;;12.80;99.90;;;;;;4972711;28;20456;-54
2022/04/15 06:16:17;;;;;;;42.80;33.55;;;12.70;99.90;;;;;;4975112;28;20806;-56
2022/04/15 06:18:44;;;;;;;41.78;31.52;;;12.70;99.90;;;;;;4972527;28;20050;-57
2022/04/15 06:21:30;;;;;;;45.22;33.33;;;12.70;99.90;;;;;;4956056;28;20041;-56
2022/04/15 06:23:57;;;;;;;40.95;29.08;;;12.70;99.90;;;;;;4971540;28;20047;-57
2022/04/15 06:26:24;;;;;;;47.58;34.72;;;12.70;99.90;;;;;;4957022;28;20042;-57
2022/04/15 06:28:51;;;;;;;40.63;30.80;;;12.70;99.90;;;;;;4970176;28;20047;-56
2022/04/15 06:31:18;;;;;;;47.28;33.25;;;12.70;99.90;;;;;;4956470;28;20144;-58
2022/04/15 06:33:45;;;;;;;;;;;12.70;99.90;;;;;;4957260;28;20047;-56
2022/04/15 06:36:12;;;;;;;48.20;34.30;;;12.70;99.90;;;;;;4965177;28;19926;-53
2022/04/15 06:38:39;;;;;;;49.53;34.75;;;12.70;99.90;;;;;;4993351;28;20049;-54
2022/04/15 06:41:05;;;;;;;;;;;12.70;99.90;;;;;;4978561;28;20046;-54
2022/04/15 06:43:32;;;;;;;39.92;29.42;;;12.70;99.90;;;;;;4976235;28;19925;-54
2022/04/15 06:45:59;;;;;;;50.58;30.73;;;12.80;99.90;;;;;;4975980;28;20097;-56
2022/04/15 06:48:26;;;;;;;45.05;30.60;;;12.90;99.90;;;;;;4975092;28;20093;-55
2022/04/15 06:50:54;;;;;;;;;;;13.00;99.90;;;;;;4974643;28;20050;-55
2022/04/15 06:53:23;;;;;;;39.83;30.45;;;13.00;99.90;;;;;;4973565;28;19925;-56
2022/04/15 06:55:50;;;;;;;39.97;29.85;;;13.10;99.90;;;;;;4974036;28;20430;-54
2022/04/15 06:58:18;;;;;;;36.83;27.55;;;13.20;99.90;;;;;;4973699;28;20054;-56
2022/04/15 07:00:46;;;;;;;36.45;27.88;;;13.30;99.90;;;;;;4974622;28;20046;-61
2022/04/15 07:03:14;;;;;;;36.80;28.23;;;13.40;99.90;;;;;;4974731;28;20039;-60
2022/04/15 07:05:42;;;;;;;37.47;28.15;;;13.50;99.90;;;;;;4974895;28;20038;-58
2022/04/15 07:08:09;;;;;;;34.88;27.35;;;13.60;99.90;;;;;;4975407;28;20081;-57
2022/04/15 07:10:38;;;;;;;34.95;28.02;;;13.60;99.90;;;;;;4976352;28;20044;-60
2022/04/15 07:13:05;;;;;;;43.50;30.95;;;13.70;99.90;;;;;;4956251;28;20655;-58
2022/04/15 07:15:32;;;;;;;39.60;30.50;;;13.70;99.90;;;;;;4944159;28;20540;-58
2022/04/15 07:18:00;;;;;;;39.58;29.65;;;13.70;99.90;;;;;;4937440;28;20389;-57
2022/04/15 07:20:27;;;;;;;36.22;29.67;;;13.70;99.90;;;;;;4943024;28;20436;-57
2022/04/15 07:22:58;;;;;;;43.00;30.02;;;13.60;99.90;;;;;;4910826;28;20209;-57
2022/04/15 07:25:26;;;;;;;39.15;28.35;;;13.60;99.90;;;;;;4928027;28;20046;-57
2022/04/15 07:27:56;;;;;;;34.10;25.90;;;13.60;99.90;;;;;;4911763;28;20067;-57
2022/04/15 07:30:24;;;;;;;49.83;30.17;;;13.60;99.90;;;;;;4911261;28;20051;-57
2022/04/15 07:32:54;;;;;;;46.15;30.60;;;13.60;99.90;;;;;;4911022;28;20054;-57
2022/04/15 07:35:21;;;;;;;31.95;26.98;;;13.70;99.90;;;;;;4911459;28;20535;-58
2022/04/15 07:37:48;;;;;;;36.17;27.77;;;13.60;99.90;;;;;;4911942;28;20213;-55
2022/04/15 07:40:16;;;;;;;40.88;29.13;;;13.70;99.90;;;;;;4926844;28;20042;-57
2022/04/15 07:42:43;;;;;;;35.80;27.58;;;13.80;99.90;;;;;;4924395;28;20215;-57
2022/04/15 07:45:10;;;;;;;37.92;28.40;;;13.80;99.90;;;;;;4909847;28;20054;-57
2022/04/15 07:47:37;;;;;;;37.72;27.35;;;13.90;99.90;;;;;;4928754;28;20140;-63
2022/04/15 07:50:23;;;;;;;37.00;28.17;;;13.90;99.90;;;;;;4929133;28;20084;-63
2022/04/15 07:52:55;;;;;;;42.03;29.70;;;13.90;99.90;;;;;;4927666;28;20312;-62
2022/04/15 07:55:22;;;;;;;49.08;33.15;;;14.00;99.90;;;;;;4930651;28;20042;-62
2022/04/15 07:57:50;;;;;;;39.35;26.48;;;14.00;99.90;;;;;;4930904;28;20287;-64
2022/04/15 08:00:18;;;;;;;52.33;33.13;;;14.00;99.90;;;;;;4928923;28;20251;-58
2022/04/15 08:02:45;;;;;;;43.75;30.50;;;14.00;99.90;;;;;;4929873;28;20049;-57
2022/04/15 08:05:13;;;;;;;42.78;30.27;;;14.00;99.90;;;;;;4928189;28;20374;-63
2022/04/15 08:07:40;;;;;;;40.25;28.67;;;14.10;99.90;;;;;;4909986;28;20672;-59
2022/04/15 08:10:08;;;;;;;35.13;29.48;;;14.10;99.90;;;;;;4925264;28;20306;-58
2022/04/15 08:12:35;;;;;;;37.95;27.83;;;14.20;99.90;;;;;;4917961;28;20566;-57
2022/04/15 08:15:03;;;;;;;38.25;26.83;;;14.20;99.90;;;;;;4937984;28;20045;-59
2022/04/15 08:17:30;;;;;;;34.95;25.70;;;14.30;99.90;;;;;;4927094;28;20057;-58
2022/04/15 08:19:58;;;;;;;28.65;21.80;;;14.30;99.90;;;;;;4927838;28;20054;-58
2022/04/15 08:22:26;;;;;;;57.33;33.90;;;14.30;99.90;;;;;;4931585;28;20027;-59
2022/04/15 08:24:54;;;;;;;40.33;28.10;;;14.40;99.90;;;;;;4949968;28;20037;-58
2022/04/15 08:27:25;;;;;;;36.97;28.40;;;14.40;99.90;;;;;;4948869;28;20593;-58
2022/04/15 08:29:52;;;;;;;32.78;27.30;;;14.50;99.90;;;;;;4931341;28;20460;-58
2022/04/15 08:32:21;;;;;;;36.80;28.05;;;14.60;99.90;;;;;;4948716;28;20883;-58
2022/04/15 08:34:52;;;;;;;39.58;28.83;;;14.60;99.90;;;;;;4949130;28;20198;-66
2022/04/15 08:37:19;;;;;;;36.53;25.58;;;14.70;99.90;;;;;;4947839;28;20038;-64
2022/04/15 08:39:46;;;;;;;35.97;26.80;;;14.70;99.90;;;;;;4941735;28;20226;-64
2022/04/15 08:42:14;;;;;;;34.47;25.25;;;14.80;99.90;;;;;;4926744;28;20801;-66
2022/04/15 08:44:44;;;;;;;43.60;27.20;;;14.90;99.90;;;;;;4929861;28;20074;-58
2022/04/15 08:47:12;;;;;;;36.90;28.58;;;15.00;99.90;;;;;;4928709;28;20038;-57
2022/04/15 08:49:39;;;;;;;36.30;26.60;;;15.20;99.90;;;;;;4929661;28;20622;-57
2022/04/15 08:52:12;;;;;;;40.92;30.27;;;15.30;99.90;;;;;;4929530;28;20034;-59
2022/04/15 08:54:39;;;;;;;33.33;24.13;;;15.40;99.90;;;;;;4926852;28;20347;-58
2022/04/15 08:57:06;;;;;;;;;;;15.50;99.90;;;;;;4930934;28;20583;-63
2022/04/15 08:59:34;;;;;;;38.72;26.20;;;15.60;99.90;;;;;;4932052;28;20131;-65
2022/04/15 09:02:02;;;;;;;28.92;22.80;;;15.70;99.90;;;;;;4931157;28;20560;-55
2022/04/15 09:04:29;;;;;;;30.70;23.77;;;15.80;99.90;;;;;;4916227;28;20065;-59
2022/04/15 09:07:02;;;;;;;38.22;25.35;;;15.90;99.90;;;;;;4930265;28;20572;-60
2022/04/15 09:09:30;;;;;;;30.67;23.90;;;15.90;99.90;;;;;;4934736;28;20061;-57
2022/04/15 09:11:59;;;;;;;32.67;22.48;;;16.00;99.90;;;;;;4933083;28;20598;-60
2022/04/15 09:14:27;;;;;;;29.15;22.77;;;16.10;99.90;;;;;;4932384;28;20042;-59
2022/04/15 09:16:54;;;;;;;31.60;23.65;;;16.10;99.90;;;;;;4932504;28;20140;-61
2022/04/15 09:19:21;;;;;;;33.80;22.48;;;16.20;99.90;;;;;;4933308;28;20047;-61
2022/04/15 09:21:56;;;;;;;28.85;19.30;;;16.20;99.90;;;;;;4932175;28;20571;-62
2022/04/15 09:24:30;;;;;;;30.60;21.85;;;16.30;99.90;;;;;;4934484;28;20038;-57
2022/04/15 09:27:02;;;;;;;32.70;25.02;;;16.40;99.90;;;;;;4931992;28;20804;-58
2022/04/15 09:29:36;;;;;;;33.65;22.75;;;16.50;99.90;;;;;;4934328;28;20621;-58
2022/04/15 09:32:09;;;;;;;33.72;25.00;;;16.70;99.90;;;;;;4912595;28;20065;-59
2022/04/15 09:35:15;;;;;;;34.80;23.92;;;17.00;99.90;;;;;;4932391;28;20149;-64
2022/04/15 09:37:43;;;;;;;38.15;23.70;;;17.20;99.90;;;;;;4945098;28;20163;-62
2022/04/15 09:40:15;;;;;;;34.22;25.10;;;17.50;99.90;;;;;;4944512;28;20392;-63
2022/04/15 09:42:53;;;;;;;28.52;22.25;;;17.70;99.90;;;;;;4930724;28;20326;-63
2022/04/15 09:45:22;;;;;;;28.33;21.70;;;18.00;99.90;;;;;;4962260;28;20330;-63
2022/04/15 09:47:53;;;;;;;30.75;20.77;;;18.20;99.90;;;;;;4943423;28;20043;-62
2022/04/15 09:50:22;;;;;;;35.28;25.23;;;18.30;99.90;;;;;;4929980;28;20207;-63
2022/04/15 09:52:51;;;;;;;28.08;20.75;;;18.40;99.90;;;;;;4929961;28;20054;-62
2022/04/15 09:55:20;;;;;;;31.60;19.95;;;18.40;99.90;;;;;;4932801;28;20050;-62
2022/04/15 09:57:48;;;;;;;30.83;22.25;;;18.40;99.90;;;;;;4929402;28;20038;-63
2022/04/15 10:00:19;;;;;;;29.48;22.50;;;18.40;99.90;;;;;;4930355;28;20219;-62
2022/04/15 10:02:49;;;;;;;32.50;22.67;;;18.20;99.90;;;;;;4929868;28;20560;-62
2022/04/15 10:05:20;;;;;;;34.80;23.13;;;17.90;99.90;;;;;;4930133;28;20031;-63
2022/04/15 10:07:49;;;;;;;27.77;20.30;;;17.70;99.90;;;;;;4931667;28;20041;-62
2022/04/15 10:10:17;;;;;;;36.13;23.38;;;17.50;99.90;;;;;;4931115;28;20051;-62
2022/04/15 10:12:46;;;;;;;33.90;24.02;;;17.40;99.90;;;;;;4931491;28;20151;-63
2022/04/15 10:15:13;;;;;;;26.55;21.58;;;17.30;99.90;;;;;;4926547;28;20145;-63
2022/04/15 10:17:41;;;;;;;29.95;22.95;;;17.20;99.90;;;;;;4926536;28;20069;-63
2022/04/15 10:20:08;;;;;;;33.72;24.25;;;17.10;99.90;;;;;;4930599;28;20959;-62
2022/04/15 10:22:37;;;;;;;38.17;24.50;;;17.10;99.90;;;;;;4929118;28;20034;-63
2022/04/15 10:25:06;;;;;;;31.17;24.08;;;16.90;99.90;;;;;;4929955;28;20921;-63
2022/04/15 10:27:34;;;;;;;32.13;25.27;;;16.70;99.90;;;;;;4929407;28;20670;-63
2022/04/15 10:30:13;;;;;;;33.42;24.73;;;16.50;99.90;;;;;;4930187;28;20046;-64
2022/04/15 10:32:52;;;;;;;31.40;22.63;;;16.20;99.90;;;;;;4926760;28;20382;-64
2022/04/15 10:35:21;;;;;;;30.90;23.70;;;16.00;99.90;;;;;;4930061;28;20200;-57
2022/04/15 10:38:02;;;;;;;37.38;22.90;;;15.90;99.90;;;;;;4928620;28;20046;-56
2022/04/15 10:40:32;;;;;;;32.55;21.83;;;15.70;99.90;;;;;;4929347;28;20880;-57
2022/04/15 10:43:22;;;;;;;36.08;24.45;;;15.50;99.90;;;;;;4930850;28;20046;-57
2022/04/15 10:45:54;;;;;;;25.58;22.10;;;15.50;99.90;;;;;;4929551;28;20456;-57
2022/04/15 10:48:32;;;;;;;33.50;21.85;;;15.50;99.90;;;;;;4927930;28;20504;-62
2022/04/15 10:51:23;;;;;;;37.78;23.05;;;15.40;99.90;;;;;;4929727;28;20646;-61
2022/04/15 10:53:50;;;;;;;31.88;21.40;;;15.40;99.90;;;;;;4925672;28;20583;-60
2022/04/15 10:56:18;;;;;;;30.65;21.42;;;15.40;99.90;;;;;;4929431;28;20042;-59
2022/04/15 11:02:02;;;;;;;22.88;17.35;;;15.40;99.90;;;;;;4928113;28;20047;-59
2022/04/15 11:04:35;;;;;;;24.35;17.52;;;15.50;99.90;;;;;;4928477;28;20521;-60
2022/04/15 11:07:15;;;;;;;25.23;17.48;;;15.60;99.90;;;;;;4927716;28;20042;-59
2022/04/15 11:09:42;;;;;;;26.25;17.27;;;15.70;99.90;;;;;;4926215;28;20556;-59
2022/04/15 11:12:11;;;;;;;25.40;17.52;;;15.90;99.90;;;;;;4928724;28;20034;-59
2022/04/15 11:14:43;;;;;;;28.83;17.92;;;16.10;99.90;;;;;;4930482;28;20052;-59
2022/04/15 11:17:13;;;;;;;20.98;16.13;;;16.30;99.90;;;;;;4927502;28;20046;-60
2022/04/15 11:19:41;;;;;;;20.63;15.50;;;16.50;99.90;;;;;;4930189;28;20129;-60
2022/04/15 11:22:09;;;;;;;22.90;15.60;;;16.70;99.90;;;;;;4926842;28;20360;-59
2022/04/15 11:24:38;;;;;;;17.38;12.75;;;16.90;99.90;;;;;;4930050;28;20038;-58
2022/04/15 11:27:10;;;;;;;18.98;12.55;;;17.20;99.90;;;;;;4932291;28;20638;-59
2022/04/15 11:29:40;;;;;;;18.92;13.55;;;17.50;99.90;;;;;;4928972;28;20043;-58
2022/04/15 11:32:08;;;;;;;23.35;15.30;;;17.80;99.90;;;;;;4926933;28;20157;-59
2022/04/15 11:34:35;;;;;;;18.83;12.23;;;18.00;99.90;;;;;;4933549;28;20050;-59
2022/04/15 11:37:04;;;;;;;16.67;11.45;;;18.00;99.90;;;;;;4934728;28;20057;-59
2022/04/15 11:39:35;;;;;;;15.30;10.63;;;18.10;99.90;;;;;;4930076;28;20606;-58
2022/04/15 11:42:12;;;;;;;22.17;12.95;;;18.20;99.90;;;;;;4932967;28;20038;-58
2022/04/15 11:44:41;;;;;;;17.48;12.75;;;18.20;99.90;;;;;;4925319;28;20445;-60
2022/04/15 11:47:21;;;;;;;13.90;11.30;;;18.30;99.90;;;;;;4928519;28;20042;-59
2022/04/15 11:49:52;;;;;;;20.13;12.00;;;18.30;99.90;;;;;;4929134;28;20046;-59
2022/04/15 11:52:21;;;;;;;15.70;12.23;;;18.40;99.90;;;;;;4927439;28;20046;-59
2022/04/15 11:54:48;;;;;;;15.63;11.63;;;18.70;99.90;;;;;;4927782;28;20061;-59
2022/04/15 11:57:15;;;;;;;16.90;10.55;;;18.80;99.90;;;;;;4926641;28;20813;-58
2022/04/15 11:59:44;;;;;;;16.00;10.80;;;18.90;99.90;;;;;;4929614;28;20042;-59
2022/04/15 12:02:14;;;;;;;15.80;10.98;;;18.90;99.90;;;;;;4928179;28;20828;-59
2022/04/15 12:04:52;;;;;;;15.68;11.25;;;18.90;99.90;;;;;;4929045;28;20787;-60
2022/04/15 12:07:20;;;;;;;15.40;10.88;;;18.90;99.90;;;;;;4928022;28;20054;-60
2022/04/15 12:09:50;;;;;;;17.25;11.80;;;18.90;99.90;;;;;;4927921;28;20043;-59
2022/04/15 12:12:19;;;;;;;15.20;10.90;;;18.90;99.90;;;;;;4929172;28;20149;-59
2022/04/15 12:14:50;;;;;;;17.98;12.80;;;18.90;99.90;;;;;;4927833;28;20302;-58
2022/04/15 12:17:17;;;;;;;18.40;11.43;;;18.90;99.90;;;;;;4927001;28;20035;-57
2022/04/15 12:19:45;;;;;;;13.15;9.63;;;18.80;99.90;;;;;;4928360;28;20039;-57
2022/04/15 12:22:12;;;;;;;15.70;11.38;;;18.80;99.90;;;;;;4927929;28;20459;-59
2022/04/15 12:24:39;;;;;;;18.35;10.10;;;18.70;99.90;;;;;;4926930;28;20338;-59
2022/04/15 12:27:06;;;;;;;16.05;10.90;;;18.70;99.90;;;;;;4930069;28;20069;-57
2022/04/15 12:29:51;;;;;;;17.85;11.68;;;18.60;99.90;;;;;;4927087;28;20989;-63
2022/04/15 12:32:25;;;;;;;17.58;11.82;;;18.60;99.90;;;;;;4927116;28;21006;-63
2022/04/15 12:34:55;;;;;;;16.88;10.05;;;18.50;99.90;;;;;;4931424;28;20046;-63
2022/04/15 12:37:43;;;;;;;12.95;10.18;;;18.50;99.90;;;;;;4928026;28;20493;-64
2022/04/15 12:40:19;;;;;;;15.27;9.68;;;18.50;99.90;;;;;;4931684;28;20038;-63
2022/04/15 12:42:49;;;;;;;11.77;8.77;;;18.50;99.90;;;;;;4928928;28;20568;-64
2022/04/15 12:45:19;;;;;;;14.38;10.73;;;18.40;99.90;;;;;;4931975;28;20728;-64
2022/04/15 12:47:59;;;;;;;18.00;10.73;;;18.40;99.90;;;;;;4929872;28;20049;-65